createdAt,value
2022-12-03T08:14:25.536Z,13.82
2022-12-03T08:24:20.893Z,13.05
2022-12-03T09:01:36.869Z,15.07
2022-12-03T09:06:36.739Z,13.18
2022-12-03T09:11:33.246Z,14.23
2022-12-03T09:59:23.107Z,13.48
2022-12-03T10:09:34.795Z,11.93
2022-12-03T12:49:51.733Z,12.10
2022-12-03T14:37:46.367Z,10.63
2022-12-03T14:42:43.009Z,10.77
2022-12-03T14:47:39.589Z,9.93
2022-12-03T14:52:36.578Z,10.23
2022-12-03T15:02:30.381Z,10.63
2022-12-03T15:07:27.164Z,10.93
2022-12-03T15:12:24.073Z,10.70
2022-12-03T15:17:29.565Z,10.23
2022-12-03T15:22:28.057Z,10.27
2022-12-03T15:27:26.356Z,10.07
2022-12-03T15:32:26.289Z,9.98
2022-12-03T15:37:27.703Z,10.73
2022-12-03T15:42:28.107Z,10.02
2022-12-03T15:47:26.172Z,11.25
2022-12-03T15:52:23.381Z,12.00
2022-12-03T16:02:22.534Z,9.00
2022-12-03T16:07:19.747Z,9.20
2022-12-03T16:17:14.388Z,8.90
2022-12-03T16:22:12.231Z,8.90
2022-12-03T16:32:35.321Z,9.15
2022-12-03T16:37:31.845Z,8.45
2022-12-03T16:42:28.407Z,8.63
2022-12-03T16:47:30.750Z,9.25
2022-12-03T16:52:34.644Z,9.70
2022-12-03T16:57:47.220Z,9.77
2022-12-03T17:02:46.986Z,9.73
2022-12-03T17:07:50.119Z,9.75
2022-12-03T17:13:08.872Z,9.13
2022-12-03T17:18:08.218Z,10.63
2022-12-03T17:23:15.554Z,9.48
2022-12-03T17:28:15.749Z,10.38
2022-12-03T17:33:12.881Z,10.80
2022-12-03T17:43:10.323Z,9.48
2022-12-03T17:48:12.672Z,10.55
2022-12-03T17:53:11.535Z,10.77
2022-12-03T17:58:09.105Z,10.38
2022-12-03T18:03:05.757Z,10.25
2022-12-03T18:08:02.412Z,10.85
2022-12-03T18:13:14.074Z,11.52
2022-12-03T18:18:11.212Z,11.43
2022-12-03T18:23:08.861Z,11.32
2022-12-03T18:28:05.366Z,11.57
2022-12-03T18:33:01.929Z,11.02
2022-12-03T18:37:58.522Z,10.38
2022-12-03T18:42:56.080Z,11.98
2022-12-03T18:47:52.717Z,12.85
2022-12-03T18:52:49.333Z,14.23
2022-12-03T18:58:04.136Z,13.80
2022-12-03T19:03:04.245Z,15.18
2022-12-03T19:08:01.763Z,16.52
2022-12-03T19:12:58.453Z,15.65
2022-12-03T19:17:55.077Z,15.73
2022-12-03T19:22:51.786Z,15.98
2022-12-03T19:27:50.861Z,16.23
2022-12-03T19:32:51.520Z,15.75
2022-12-03T19:37:49.076Z,18.02
2022-12-03T19:42:45.607Z,16.80
2022-12-03T19:47:42.548Z,17.48
2022-12-03T19:52:39.062Z,17.38
2022-12-03T19:57:35.579Z,17.15
2022-12-03T20:02:34.312Z,17.75
2022-12-03T20:07:31.046Z,17.95
2022-12-03T20:12:27.622Z,19.30
2022-12-03T20:17:24.295Z,17.08
2022-12-03T20:22:20.905Z,17.85
2022-12-03T20:27:22.662Z,19.33
2022-12-03T20:32:19.766Z,17.45
2022-12-03T20:37:19.358Z,19.30
2022-12-03T20:42:15.922Z,17.75
2022-12-03T20:47:12.539Z,16.92
2022-12-03T20:52:09.112Z,16.95
2022-12-03T20:57:05.636Z,19.98
2022-12-03T21:02:02.334Z,18.92
2022-12-03T21:06:59.056Z,19.52
2022-12-03T21:11:55.536Z,18.38
2022-12-03T21:17:07.820Z,18.83
2022-12-03T21:22:06.233Z,19.30
2022-12-03T21:27:03.066Z,19.70
2022-12-03T21:31:59.930Z,18.75
2022-12-03T21:36:56.430Z,18.95
2022-12-03T21:42:34.719Z,13.63
2022-12-03T21:47:14.226Z,18.65
2022-12-03T21:52:12.306Z,18.67
2022-12-03T21:57:08.965Z,19.70
2022-12-03T22:02:05.816Z,20.00
2022-12-03T22:07:03.415Z,19.85
2022-12-03T22:12:01.325Z,21.35
2022-12-03T22:16:57.856Z,22.17
2022-12-03T22:21:55.446Z,23.67
2022-12-03T22:26:53.595Z,23.92
2022-12-03T22:31:50.271Z,22.98
2022-12-03T22:36:47.049Z,22.40
2022-12-03T22:41:43.717Z,23.90
2022-12-03T22:46:40.367Z,23.00
2022-12-03T22:51:38.201Z,23.42
2022-12-03T22:56:36.013Z,23.10
2022-12-03T23:01:38.169Z,22.15
2022-12-03T23:06:36.106Z,23.40
2022-12-03T23:11:33.237Z,24.38
2022-12-03T23:21:30.650Z,21.23
2022-12-03T23:26:27.968Z,22.05
2022-12-03T23:36:24.872Z,21.65
2022-12-03T23:41:23.322Z,22.45
2022-12-03T23:46:22.198Z,22.98
2022-12-03T23:51:24.108Z,21.30
2022-12-03T23:56:23.909Z,21.15
